sensor_id;sensor_type;location;lat;lon;timestamp;P1;durP1;ratioP1;P2;durP2;ratioP2
15608;SDS011;64278;45.642;13.756;2023-02-11T00:18:27;4.25;;;3.95;;
15608;SDS011;64278;45.642;13.756;2023-02-11T00:20:53;4.68;;;4.28;;
15608;SDS011;64278;45.642;13.756;2023-02-11T00:23:19;4.20;;;3.90;;
15608;SDS011;64278;45.642;13.756;2023-02-11T00:25:44;3.90;;;3.50;;
15608;SDS011;64278;45.642;13.756;2023-02-11T00:28:10;4.10;;;3.70;;
15608;SDS011;64278;45.642;13.756;2023-02-11T00:30:36;4.28;;;3.90;;
15608;SDS011;64278;45.642;13.756;2023-02-11T00:33:02;3.80;;;3.50;;
15608;SDS011;64278;45.642;13.756;2023-02-11T00:35:28;4.53;;;4.13;;
15608;SDS011;64278;45.642;13.756;2023-02-11T00:37:54;3.88;;;3.50;;
15608;SDS011;64278;45.642;13.756;2023-02-11T00:40:20;3.75;;;3.45;;
15608;SDS011;64278;45.642;13.756;2023-02-11T00:42:46;4.30;;;3.90;;
15608;SDS011;64278;45.642;13.756;2023-02-11T00:45:12;3.97;;;3.67;;
15608;SDS011;64278;45.642;13.756;2023-02-11T00:47:38;4.25;;;3.85;;
15608;SDS011;64278;45.642;13.756;2023-02-11T00:50:04;4.68;;;4.28;;
15608;SDS011;64278;45.642;13.756;2023-02-11T00:52:31;3.53;;;3.22;;
15608;SDS011;64278;45.642;13.756;2023-02-11T00:54:57;4.00;;;3.70;;
15608;SDS011;64278;45.642;13.756;2023-02-11T00:57:22;3.83;;;3.53;;
15608;SDS011;64278;45.642;13.756;2023-02-11T00:59:48;3.72;;;3.42;;
15608;SDS011;64278;45.642;13.756;2023-02-11T01:08:20;3.75;;;3.45;;
15608;SDS011;64278;45.642;13.756;2023-02-11T01:11:10;4.47;;;3.85;;
15608;SDS011;64278;45.642;13.756;2023-02-11T01:13:37;4.25;;;3.92;;
15608;SDS011;64278;45.642;13.756;2023-02-11T01:16:04;3.25;;;3.05;;
15608;SDS011;64278;45.642;13.756;2023-02-11T01:21:22;4.40;;;4.00;;
15608;SDS011;64278;45.642;13.756;2023-02-11T01:23:49;3.92;;;3.63;;
15608;SDS011;64278;45.642;13.756;2023-02-11T01:26:14;3.50;;;3.15;;
15608;SDS011;64278;45.642;13.756;2023-02-11T01:28:40;3.85;;;3.50;;
15608;SDS011;64278;45.642;13.756;2023-02-11T01:31:06;3.95;;;3.55;;
15608;SDS011;64278;45.642;13.756;2023-02-11T01:33:31;3.60;;;3.30;;
15608;SDS011;64278;45.642;13.756;2023-02-11T01:36:03;4.15;;;3.85;;
15608;SDS011;64278;45.642;13.756;2023-02-11T01:38:30;3.42;;;3.22;;
15608;SDS011;64278;45.642;13.756;2023-02-11T01:40:58;3.70;;;3.40;;
15608;SDS011;64278;45.642;13.756;2023-02-11T01:43:25;4.10;;;3.67;;
15608;SDS011;64278;45.642;13.756;2023-02-11T01:46:00;4.00;;;3.60;;
15608;SDS011;64278;45.642;13.756;2023-02-11T01:48:40;3.72;;;3.50;;
15608;SDS011;64278;45.642;13.756;2023-02-11T01:51:10;4.57;;;4.15;;
15608;SDS011;64278;45.642;13.756;2023-02-11T01:53:42;4.00;;;3.70;;
15608;SDS011;64278;45.642;13.756;2023-02-11T01:56:27;4.10;;;3.80;;
15608;SDS011;64278;45.642;13.756;2023-02-11T01:59:15;3.80;;;3.50;;
15608;SDS011;64278;45.642;13.756;2023-02-11T02:01:50;3.83;;;3.53;;
15608;SDS011;64278;45.642;13.756;2023-02-11T02:04:20;3.83;;;3.50;;
15608;SDS011;64278;45.642;13.756;2023-02-11T02:06:56;3.65;;;3.35;;
15608;SDS011;64278;45.642;13.756;2023-02-11T02:09:27;3.38;;;3.08;;
15608;SDS011;64278;45.642;13.756;2023-02-11T02:12:00;3.42;;;3.13;;
15608;SDS011;64278;45.642;13.756;2023-02-11T02:14:26;3.88;;;3.58;;
15608;SDS011;64278;45.642;13.756;2023-02-11T02:16:52;4.05;;;3.75;;
15608;SDS011;64278;45.642;13.756;2023-02-11T02:36:08;3.90;;;3.60;;
15608;SDS011;64278;45.642;13.756;2023-02-11T02:39:06;4.32;;;3.92;;
15608;SDS011;64278;45.642;13.756;2023-02-11T02:41:46;4.00;;;3.65;;
15608;SDS011;64278;45.642;13.756;2023-02-11T02:44:14;3.53;;;3.22;;
15608;SDS011;64278;45.642;13.756;2023-02-11T02:46:40;3.50;;;3.20;;
15608;SDS011;64278;45.642;13.756;2023-02-11T02:49:08;3.75;;;3.45;;
15608;SDS011;64278;45.642;13.756;2023-02-11T02:57:27;3.03;;;2.83;;
15608;SDS011;64278;45.642;13.756;2023-02-11T03:02:47;3.70;;;3.40;;
15608;SDS011;64278;45.642;13.756;2023-02-11T03:05:55;3.80;;;3.50;;
15608;SDS011;64278;45.642;13.756;2023-02-11T03:11:09;3.75;;;3.50;;
15608;SDS011;64278;45.642;13.756;2023-02-11T03:13:36;3.67;;;3.38;;
15608;SDS011;64278;45.642;13.756;2023-02-11T03:16:07;3.90;;;3.50;;
15608;SDS011;64278;45.642;13.756;2023-02-11T03:18:37;3.75;;;3.45;;
15608;SDS011;64278;45.642;13.756;2023-02-11T03:21:08;3.97;;;3.67;;
15608;SDS011;64278;45.642;13.756;2023-02-11T03:23:38;3.78;;;3.30;;
15608;SDS011;64278;45.642;13.756;2023-02-11T03:26:11;3.67;;;3.38;;
15608;SDS011;64278;45.642;13.756;2023-02-11T03:31:45;3.88;;;3.58;;
15608;SDS011;64278;45.642;13.756;2023-02-11T03:39:56;4.13;;;3.83;;
15608;SDS011;64278;45.642;13.756;2023-02-11T03:42:29;3.50;;;3.20;;
15608;SDS011;64278;45.642;13.756;2023-02-11T03:45:00;3.88;;;3.58;;
15608;SDS011;64278;45.642;13.756;2023-02-11T03:47:30;3.40;;;3.20;;
15608;SDS011;64278;45.642;13.756;2023-02-11T03:50:00;4.15;;;3.85;;
15608;SDS011;64278;45.642;13.756;2023-02-11T03:52:30;3.15;;;2.95;;
15608;SDS011;64278;45.642;13.756;2023-02-11T03:54:58;3.70;;;3.40;;
15608;SDS011;64278;45.642;13.756;2023-02-11T03:57:25;3.60;;;3.30;;
15608;SDS011;64278;45.642;13.756;2023-02-11T03:59:55;3.28;;;2.97;;
15608;SDS011;64278;45.642;13.756;2023-02-11T04:02:26;3.40;;;3.10;;
15608;SDS011;64278;45.642;13.756;2023-02-11T04:04:55;4.05;;;3.75;;
15608;SDS011;64278;45.642;13.756;2023-02-11T04:07:21;3.85;;;3.55;;
15608;SDS011;64278;45.642;13.756;2023-02-11T04:09:47;3.35;;;3.10;;
15608;SDS011;64278;45.642;13.756;2023-02-11T04:12:13;3.65;;;3.35;;
15608;SDS011;64278;45.642;13.756;2023-02-11T04:14:39;3.95;;;3.65;;
15608;SDS011;64278;45.642;13.756;2023-02-11T04:17:04;3.90;;;3.60;;
15608;SDS011;64278;45.642;13.756;2023-02-11T04:19:30;3.58;;;3.28;;
15608;SDS011;64278;45.642;13.756;2023-02-11T04:21:56;3.35;;;3.15;;
15608;SDS011;64278;45.642;13.756;2023-02-11T04:24:22;4.05;;;3.75;;
15608;SDS011;64278;45.642;13.756;2023-02-11T04:26:47;3.75;;;3.45;;
15608;SDS011;64278;45.642;13.756;2023-02-11T04:29:13;3.65;;;3.45;;
15608;SDS011;64278;45.642;13.756;2023-02-11T04:31:38;3.50;;;3.20;;
15608;SDS011;64278;45.642;13.756;2023-02-11T04:34:04;3.92;;;3.42;;
15608;SDS011;64278;45.642;13.756;2023-02-11T04:36:30;3.88;;;3.45;;
15608;SDS011;64278;45.642;13.756;2023-02-11T04:38:55;3.55;;;3.25;;
15608;SDS011;64278;45.642;13.756;2023-02-11T04:41:21;4.05;;;3.75;;
15608;SDS011;64278;45.642;13.756;2023-02-11T04:43:46;3.33;;;3.13;;
15608;SDS011;64278;45.642;13.756;2023-02-11T04:46:12;3.45;;;3.25;;
15608;SDS011;64278;45.642;13.756;2023-02-11T04:48:38;3.95;;;3.65;;
15608;SDS011;64278;45.642;13.756;2023-02-11T04:51:04;3.67;;;3.38;;
15608;SDS011;64278;45.642;13.756;2023-02-11T04:53:29;3.53;;;3.22;;
15608;SDS011;64278;45.642;13.756;2023-02-11T04:55:55;3.80;;;3.50;;
15608;SDS011;64278;45.642;13.756;2023-02-11T04:58:21;3.70;;;3.40;;
15608;SDS011;64278;45.642;13.756;2023-02-11T05:00:48;3.47;;;3.17;;
15608;SDS011;64278;45.642;13.756;2023-02-11T05:03:14;2.97;;;2.78;;
15608;SDS011;64278;45.642;13.756;2023-02-11T05:05:40;4.00;;;3.60;;
15608;SDS011;64278;45.642;13.756;2023-02-11T05:08:07;3.45;;;3.15;;
15608;SDS011;64278;45.642;13.756;2023-02-11T05:10:36;3.03;;;2.83;;
15608;SDS011;64278;45.642;13.756;2023-02-11T05:13:02;3.70;;;3.40;;
15608;SDS011;64278;45.642;13.756;2023-02-11T05:15:28;3.38;;;3.08;;
15608;SDS011;64278;45.642;13.756;2023-02-11T05:17:53;3.65;;;3.35;;
15608;SDS011;64278;45.642;13.756;2023-02-11T05:20:19;3.60;;;3.30;;
15608;SDS011;64278;45.642;13.756;2023-02-11T05:22:45;4.10;;;3.70;;
15608;SDS011;64278;45.642;13.756;2023-02-11T05:25:11;4.00;;;3.70;;
15608;SDS011;64278;45.642;13.756;2023-02-11T05:27:36;4.10;;;3.70;;
15608;SDS011;64278;45.642;13.756;2023-02-11T05:30:03;4.03;;;3.72;;
15608;SDS011;64278;45.642;13.756;2023-02-11T05:32:30;3.80;;;3.50;;
15608;SDS011;64278;45.642;13.756;2023-02-11T05:34:56;4.00;;;3.70;;
15608;SDS011;64278;45.642;13.756;2023-02-11T05:37:22;3.47;;;3.17;;
15608;SDS011;64278;45.642;13.756;2023-02-11T05:39:47;4.05;;;3.75;;
15608;SDS011;64278;45.642;13.756;2023-02-11T05:42:13;3.50;;;3.20;;
15608;SDS011;64278;45.642;13.756;2023-02-11T05:44:39;4.55;;;3.90;;
15608;SDS011;64278;45.642;13.756;2023-02-11T05:47:05;3.42;;;3.13;;
15608;SDS011;64278;45.642;13.756;2023-02-11T05:49:32;5.05;;;3.67;;
15608;SDS011;64278;45.642;13.756;2023-02-11T05:51:58;3.50;;;3.20;;
15608;SDS011;64278;45.642;13.756;2023-02-11T05:54:24;3.50;;;3.30;;
15608;SDS011;64278;45.642;13.756;2023-02-11T05:56:50;3.03;;;2.75;;
15608;SDS011;64278;45.642;13.756;2023-02-11T05:59:16;3.50;;;3.20;;
15608;SDS011;64278;45.642;13.756;2023-02-11T06:01:41;4.05;;;3.65;;
15608;SDS011;64278;45.642;13.756;2023-02-11T06:04:07;3.95;;;3.60;;
15608;SDS011;64278;45.642;13.756;2023-02-11T06:06:33;3.70;;;3.40;;
15608;SDS011;64278;45.642;13.756;2023-02-11T06:08:58;3.17;;;2.97;;
15608;SDS011;64278;45.642;13.756;2023-02-11T06:11:24;3.95;;;3.53;;
15608;SDS011;64278;45.642;13.756;2023-02-11T06:13:50;3.53;;;3.22;;
15608;SDS011;64278;45.642;13.756;2023-02-11T06:16:15;3.58;;;3.28;;
15608;SDS011;64278;45.642;13.756;2023-02-11T06:18:41;3.58;;;3.30;;
15608;SDS011;64278;45.642;13.756;2023-02-11T06:21:08;3.22;;;2.92;;
15608;SDS011;64278;45.642;13.756;2023-02-11T06:23:34;3.78;;;3.40;;
15608;SDS011;64278;45.642;13.756;2023-02-11T06:26:01;3.38;;;3.17;;
15608;SDS011;64278;45.642;13.756;2023-02-11T06:28:28;3.78;;;3.47;;
15608;SDS011;64278;45.642;13.756;2023-02-11T06:30:55;3.35;;;3.05;;
15608;SDS011;64278;45.642;13.756;2023-02-11T06:33:21;3.67;;;2.85;;
15608;SDS011;64278;45.642;13.756;2023-02-11T06:35:47;3.40;;;3.13;;
15608;SDS011;64278;45.642;13.756;2023-02-11T06:38:13;3.33;;;3.03;;
15608;SDS011;64278;45.642;13.756;2023-02-11T06:40:39;3.22;;;3.03;;
15608;SDS011;64278;45.642;13.756;2023-02-11T06:43:05;3.58;;;3.28;;
15608;SDS011;64278;45.642;13.756;2023-02-11T06:45:31;3.50;;;3.20;;
15608;SDS011;64278;45.642;13.756;2023-02-11T06:47:57;3.60;;;3.30;;
15608;SDS011;64278;45.642;13.756;2023-02-11T06:50:22;3.40;;;3.10;;
15608;SDS011;64278;45.642;13.756;2023-02-11T06:52:48;4.00;;;3.67;;
15608;SDS011;64278;45.642;13.756;2023-02-11T06:55:14;3.85;;;3.53;;
15608;SDS011;64278;45.642;13.756;2023-02-11T06:57:39;3.53;;;3.22;;
15608;SDS011;64278;45.642;13.756;2023-02-11T07:00:05;3.40;;;3.10;;
15608;SDS011;64278;45.642;13.756;2023-02-11T07:02:32;3.30;;;3.05;;
15608;SDS011;64278;45.642;13.756;2023-02-11T07:04:57;3.50;;;3.15;;
15608;SDS011;64278;45.642;13.756;2023-02-11T07:07:23;3.30;;;3.00;;
15608;SDS011;64278;45.642;13.756;2023-02-11T07:09:48;3.42;;;3.13;;
15608;SDS011;64278;45.642;13.756;2023-02-11T07:12:14;3.33;;;3.13;;
15608;SDS011;64278;45.642;13.756;2023-02-11T07:14:40;3.47;;;3.17;;
15608;SDS011;64278;45.642;13.756;2023-02-11T07:17:06;3.50;;;3.22;;
15608;SDS011;64278;45.642;13.756;2023-02-11T07:19:31;4.03;;;3.72;;
15608;SDS011;64278;45.642;13.756;2023-02-11T07:21:57;3.25;;;2.95;;
15608;SDS011;64278;45.642;13.756;2023-02-11T07:24:22;3.30;;;3.05;;
15608;SDS011;64278;45.642;13.756;2023-02-11T07:26:49;3.67;;;3.38;;
15608;SDS011;64278;45.642;13.756;2023-02-11T07:29:14;3.75;;;3.33;;
15608;SDS011;64278;45.642;13.756;2023-02-11T07:31:40;3.22;;;3.03;;
15608;SDS011;64278;45.642;13.756;2023-02-11T07:34:05;3.65;;;3.20;;
15608;SDS011;64278;45.642;13.756;2023-02-11T07:36:31;3.35;;;3.05;;
15608;SDS011;64278;45.642;13.756;2023-02-11T07:38:57;3.40;;;3.13;;
15608;SDS011;64278;45.642;13.756;2023-02-11T07:41:24;4.25;;;3.85;;
15608;SDS011;64278;45.642;13.756;2023-02-11T07:43:51;3.10;;;2.90;;
15608;SDS011;64278;45.642;13.756;2023-02-11T07:46:19;2.92;;;2.72;;
15608;SDS011;64278;45.642;13.756;2023-02-11T07:48:46;3.35;;;3.10;;
15608;SDS011;64278;45.642;13.756;2023-02-11T07:53:41;3.35;;;3.05;;
15608;SDS011;64278;45.642;13.756;2023-02-11T07:56:07;3.50;;;3.20;;
15608;SDS011;64278;45.642;13.756;2023-02-11T07:58:35;3.00;;;2.80;;
15608;SDS011;64278;45.642;13.756;2023-02-11T08:01:06;3.88;;;3.50;;
15608;SDS011;64278;45.642;13.756;2023-02-11T08:03:34;4.35;;;3.95;;
15608;SDS011;64278;45.642;13.756;2023-02-11T08:06:04;9.45;;;7.20;;
15608;SDS011;64278;45.642;13.756;2023-02-11T08:08:31;7.88;;;7.07;;
15608;SDS011;64278;45.642;13.756;2023-02-11T08:10:57;10.40;;;8.90;;
15608;SDS011;64278;45.642;13.756;2023-02-11T08:13:23;7.18;;;6.53;;
15608;SDS011;64278;45.642;13.756;2023-02-11T08:15:50;6.03;;;5.43;;
15608;SDS011;64278;45.642;13.756;2023-02-11T08:18:16;7.18;;;6.47;;
15608;SDS011;64278;45.642;13.756;2023-02-11T08:20:42;7.78;;;6.00;;
15608;SDS011;64278;45.642;13.756;2023-02-11T08:23:07;6.32;;;5.63;;
15608;SDS011;64278;45.642;13.756;2023-02-11T08:25:33;7.00;;;5.68;;
15608;SDS011;64278;45.642;13.756;2023-02-11T08:27:59;6.32;;;5.72;;
15608;SDS011;64278;45.642;13.756;2023-02-11T08:30:24;7.28;;;6.57;;
15608;SDS011;64278;45.642;13.756;2023-02-11T08:32:50;7.80;;;7.10;;
15608;SDS011;64278;45.642;13.756;2023-02-11T08:35:16;7.85;;;6.88;;
15608;SDS011;64278;45.642;13.756;2023-02-11T08:37:41;6.93;;;6.07;;
15608;SDS011;64278;45.642;13.756;2023-02-11T08:40:07;7.35;;;6.60;;
15608;SDS011;64278;45.642;13.756;2023-02-11T08:42:33;8.32;;;7.25;;
15608;SDS011;64278;45.642;13.756;2023-02-11T08:44:59;7.43;;;6.68;;
15608;SDS011;64278;45.642;13.756;2023-02-11T08:47:24;7.47;;;6.78;;
15608;SDS011;64278;45.642;13.756;2023-02-11T08:49:50;6.63;;;6.07;;
15608;SDS011;64278;45.642;13.756;2023-02-11T08:52:15;8.57;;;6.55;;
15608;SDS011;64278;45.642;13.756;2023-02-11T08:54:41;6.85;;;6.25;;
15608;SDS011;64278;45.642;13.756;2023-02-11T08:57:07;9.35;;;7.30;;
15608;SDS011;64278;45.642;13.756;2023-02-11T08:59:33;7.75;;;6.97;;
15608;SDS011;64278;45.642;13.756;2023-02-11T09:01:58;8.27;;;7.05;;
15608;SDS011;64278;45.642;13.756;2023-02-11T09:04:24;7.35;;;6.75;;
15608;SDS011;64278;45.642;13.756;2023-02-11T09:06:49;6.75;;;6.07;;
15608;SDS011;64278;45.642;13.756;2023-02-11T09:09:15;8.48;;;6.63;;
15608;SDS011;64278;45.642;13.756;2023-02-11T09:11:42;9.18;;;6.70;;
15608;SDS011;64278;45.642;13.756;2023-02-11T09:14:11;7.60;;;6.25;;
15608;SDS011;64278;45.642;13.756;2023-02-11T09:16:41;7.57;;;6.78;;
15608;SDS011;64278;45.642;13.756;2023-02-11T09:19:08;7.38;;;6.63;;
15608;SDS011;64278;45.642;13.756;2023-02-11T09:21:34;7.88;;;6.85;;
15608;SDS011;64278;45.642;13.756;2023-02-11T09:24:00;10.75;;;6.57;;
15608;SDS011;64278;45.642;13.756;2023-02-11T09:26:27;6.63;;;5.88;;
15608;SDS011;64278;45.642;13.756;2023-02-11T09:28:54;7.85;;;7.05;;
15608;SDS011;64278;45.642;13.756;2023-02-11T09:31:21;8.05;;;6.63;;
15608;SDS011;64278;45.642;13.756;2023-02-11T09:33:49;6.65;;;5.88;;
15608;SDS011;64278;45.642;13.756;2023-02-11T09:36:19;10.50;;;6.75;;
15608;SDS011;64278;45.642;13.756;2023-02-11T09:38:46;7.95;;;5.63;;
15608;SDS011;64278;45.642;13.756;2023-02-11T09:41:17;6.55;;;5.32;;
15608;SDS011;64278;45.642;13.756;2023-02-11T09:43:57;6.95;;;5.63;;
15608;SDS011;64278;45.642;13.756;2023-02-11T09:46:27;6.97;;;5.40;;
15608;SDS011;64278;45.642;13.756;2023-02-11T09:48:56;8.80;;;5.88;;
15608;SDS011;64278;45.642;13.756;2023-02-11T09:51:29;8.15;;;6.05;;
15608;SDS011;64278;45.642;13.756;2023-02-11T09:53:59;7.10;;;5.60;;
15608;SDS011;64278;45.642;13.756;2023-02-11T09:56:29;7.80;;;5.60;;
15608;SDS011;64278;45.642;13.756;2023-02-11T09:58:55;7.53;;;5.05;;
15608;SDS011;64278;45.642;13.756;2023-02-11T10:09:43;6.72;;;5.10;;
15608;SDS011;64278;45.642;13.756;2023-02-11T10:20:35;6.00;;;4.93;;
15608;SDS011;64278;45.642;13.756;2023-02-11T10:23:07;5.05;;;4.55;;
15608;SDS011;64278;45.642;13.756;2023-02-11T10:25:48;6.03;;;4.93;;
15608;SDS011;64278;45.642;13.756;2023-02-11T10:28:19;6.47;;;4.75;;
15608;SDS011;64278;45.642;13.756;2023-02-11T10:30:57;8.68;;;5.78;;
15608;SDS011;64278;45.642;13.756;2023-02-11T10:33:35;5.18;;;4.68;;
15608;SDS011;64278;45.642;13.756;2023-02-11T10:36:21;12.80;;;9.95;;
15608;SDS011;64278;45.642;13.756;2023-02-11T10:38:51;11.20;;;9.98;;
15608;SDS011;64278;45.642;13.756;2023-02-11T10:41:21;10.82;;;8.90;;
15608;SDS011;64278;45.642;13.756;2023-02-11T10:43:55;12.77;;;9.23;;
15608;SDS011;64278;45.642;13.756;2023-02-11T10:46:22;13.75;;;12.25;;
15608;SDS011;64278;45.642;13.756;2023-02-11T10:48:53;22.00;;;17.42;;
15608;SDS011;64278;45.642;13.756;2023-02-11T10:51:22;25.50;;;22.75;;
15608;SDS011;64278;45.642;13.756;2023-02-11T10:56:30;17.75;;;15.90;;
15608;SDS011;64278;45.642;13.756;2023-02-11T10:58:59;16.17;;;14.60;;
15608;SDS011;64278;45.642;13.756;2023-02-11T11:01:41;15.02;;;11.75;;
15608;SDS011;64278;45.642;13.756;2023-02-11T11:06:54;16.85;;;14.13;;
15608;SDS011;64278;45.642;13.756;2023-02-11T11:09:27;14.45;;;12.13;;
15608;SDS011;64278;45.642;13.756;2023-02-11T11:11:55;11.73;;;10.65;;
15608;SDS011;64278;45.642;13.756;2023-02-11T11:14:20;10.98;;;9.38;;
15608;SDS011;64278;45.642;13.756;2023-02-11T11:16:52;9.75;;;8.75;;
15608;SDS011;64278;45.642;13.756;2023-02-11T11:19:20;10.73;;;7.50;;
15608;SDS011;64278;45.642;13.756;2023-02-11T11:21:51;8.07;;;7.32;;
15608;SDS011;64278;45.642;13.756;2023-02-11T11:26:51;6.20;;;5.60;;
15608;SDS011;64278;45.642;13.756;2023-02-11T11:29:30;6.82;;;6.10;;
15608;SDS011;64278;45.642;13.756;2023-02-11T11:34:40;10.50;;;6.60;;
15608;SDS011;64278;45.642;13.756;2023-02-11T11:42:29;6.85;;;6.15;;
15608;SDS011;64278;45.642;13.756;2023-02-11T11:44:57;8.75;;;6.00;;
15608;SDS011;64278;45.642;13.756;2023-02-11T11:47:28;6.88;;;5.60;;
15608;SDS011;64278;45.642;13.756;2023-02-11T11:55:09;7.18;;;6.00;;
15608;SDS011;64278;45.642;13.756;2023-02-11T11:57:36;7.57;;;6.53;;
15608;SDS011;64278;45.642;13.756;2023-02-11T12:00:03;9.73;;;6.38;;
15608;SDS011;64278;45.642;13.756;2023-02-11T12:05:01;10.10;;;6.38;;
15608;SDS011;64278;45.642;13.756;2023-02-11T12:07:53;8.75;;;6.45;;
15608;SDS011;64278;45.642;13.756;2023-02-11T12:16:22;6.53;;;5.72;;
15608;SDS011;64278;45.642;13.756;2023-02-11T12:27:34;6.45;;;5.88;;
15608;SDS011;64278;45.642;13.756;2023-02-11T12:38:23;8.52;;;5.82;;
15608;SDS011;64278;45.642;13.756;2023-02-11T12:44:22;7.60;;;6.00;;
15608;SDS011;64278;45.642;13.756;2023-02-11T12:52:32;7.25;;;6.63;;
15608;SDS011;64278;45.642;13.756;2023-02-11T12:55:00;9.00;;;6.22;;
15608;SDS011;64278;45.642;13.756;2023-02-11T12:57:31;7.50;;;6.80;;
15608;SDS011;64278;45.642;13.756;2023-02-11T13:05:21;9.30;;;6.00;;
15608;SDS011;64278;45.642;13.756;2023-02-11T13:10:47;7.40;;;6.70;;
15608;SDS011;64278;45.642;13.756;2023-02-11T13:13:22;7.05;;;6.38;;
15608;SDS011;64278;45.642;13.756;2023-02-11T13:16:01;9.30;;;7.40;;
15608;SDS011;64278;45.642;13.756;2023-02-11T13:18:44;8.48;;;6.95;;
15608;SDS011;64278;45.642;13.756;2023-02-11T13:24:18;7.35;;;6.63;;
15608;SDS011;64278;45.642;13.756;2023-02-11T13:35:32;8.15;;;7.32;;
15608;SDS011;64278;45.642;13.756;2023-02-11T13:38:02;8.30;;;6.55;;
15608;SDS011;64278;45.642;13.756;2023-02-11T13:40:34;8.25;;;6.90;;
15608;SDS011;64278;45.642;13.756;2023-02-11T13:43:03;7.50;;;6.80;;
15608;SDS011;64278;45.642;13.756;2023-02-11T13:45:43;7.80;;;6.80;;
15608;SDS011;64278;45.642;13.756;2023-02-11T13:50:46;8.68;;;7.10;;
15608;SDS011;64278;45.642;13.756;2023-02-11T13:53:13;8.98;;;7.20;;
15608;SDS011;64278;45.642;13.756;2023-02-11T13:55:41;7.70;;;6.90;;
15608;SDS011;64278;45.642;13.756;2023-02-11T14:22:12;7.95;;;7.15;;
15608;SDS011;64278;45.642;13.756;2023-02-11T14:24:44;8.45;;;6.90;;
15608;SDS011;64278;45.642;13.756;2023-02-11T14:32:48;8.02;;;7.15;;
15608;SDS011;64278;45.642;13.756;2023-02-11T14:41:43;6.75;;;6.18;;
15608;SDS011;64278;45.642;13.756;2023-02-11T14:44:18;7.25;;;6.55;;
15608;SDS011;64278;45.642;13.756;2023-02-11T14:46:49;8.23;;;6.32;;
15608;SDS011;64278;45.642;13.756;2023-02-11T14:49:23;6.93;;;6.32;;
15608;SDS011;64278;45.642;13.756;2023-02-11T14:51:58;7.22;;;6.55;;
15608;SDS011;64278;45.642;13.756;2023-02-11T14:54:44;6.75;;;6.15;;
15608;SDS011;64278;45.642;13.756;2023-02-11T14:57:15;7.35;;;6.57;;
15608;SDS011;64278;45.642;13.756;2023-02-11T14:59:58;6.28;;;5.78;;
15608;SDS011;64278;45.642;13.756;2023-02-11T15:02:35;6.22;;;5.63;;
15608;SDS011;64278;45.642;13.756;2023-02-11T15:05:21;6.40;;;5.70;;
15608;SDS011;64278;45.642;13.756;2023-02-11T15:07:52;6.10;;;5.60;;
15608;SDS011;64278;45.642;13.756;2023-02-11T15:13:07;5.75;;;5.25;;
15608;SDS011;64278;45.642;13.756;2023-02-11T15:15:38;5.95;;;5.47;;
15608;SDS011;64278;45.642;13.756;2023-02-11T15:18:04;6.13;;;5.53;;
15608;SDS011;64278;45.642;13.756;2023-02-11T15:20:31;5.47;;;4.97;;
15608;SDS011;64278;45.642;13.756;2023-02-11T15:22:59;5.70;;;5.20;;
15608;SDS011;64278;45.642;13.756;2023-02-11T15:25:27;6.93;;;5.55;;
15608;SDS011;64278;45.642;13.756;2023-02-11T15:27:54;5.03;;;4.63;;
15608;SDS011;64278;45.642;13.756;2023-02-11T15:32:54;7.82;;;5.05;;
15608;SDS011;64278;45.642;13.756;2023-02-11T15:35:25;5.00;;;4.60;;
15608;SDS011;64278;45.642;13.756;2023-02-11T15:38:00;5.50;;;5.10;;
15608;SDS011;64278;45.642;13.756;2023-02-11T15:40:27;5.30;;;4.90;;
15608;SDS011;64278;45.642;13.756;2023-02-11T15:45:42;5.20;;;4.70;;
15608;SDS011;64278;45.642;13.756;2023-02-11T15:48:16;5.43;;;4.93;;
15608;SDS011;64278;45.642;13.756;2023-02-11T15:50:55;6.20;;;5.03;;
15608;SDS011;64278;45.642;13.756;2023-02-11T15:53:32;5.45;;;5.05;;
15608;SDS011;64278;45.642;13.756;2023-02-11T15:58:44;5.22;;;4.82;;
15608;SDS011;64278;45.642;13.756;2023-02-11T16:01:12;5.20;;;4.80;;
15608;SDS011;64278;45.642;13.756;2023-02-11T16:03:39;5.20;;;4.80;;
15608;SDS011;64278;45.642;13.756;2023-02-11T16:14:20;5.30;;;4.70;;
15608;SDS011;64278;45.642;13.756;2023-02-11T16:16:47;5.20;;;4.80;;
15608;SDS011;64278;45.642;13.756;2023-02-11T16:19:18;5.25;;;4.80;;
15608;SDS011;64278;45.642;13.756;2023-02-11T16:21:46;5.78;;;5.20;;
15608;SDS011;64278;45.642;13.756;2023-02-11T16:24:20;5.60;;;5.10;;
15608;SDS011;64278;45.642;13.756;2023-02-11T16:26:55;4.90;;;4.47;;
15608;SDS011;64278;45.642;13.756;2023-02-11T16:29:27;5.05;;;4.65;;
15608;SDS011;64278;45.642;13.756;2023-02-11T16:32:08;5.18;;;4.68;;
15608;SDS011;64278;45.642;13.756;2023-02-11T16:34:34;4.63;;;4.22;;
15608;SDS011;64278;45.642;13.756;2023-02-11T16:37:01;4.80;;;4.40;;
15608;SDS011;64278;45.642;13.756;2023-02-11T16:39:28;5.07;;;4.57;;
15608;SDS011;64278;45.642;13.756;2023-02-11T16:41:54;5.13;;;4.63;;
15608;SDS011;64278;45.642;13.756;2023-02-11T16:44:20;5.65;;;5.10;;
15608;SDS011;64278;45.642;13.756;2023-02-11T16:46:46;5.18;;;4.78;;
15608;SDS011;64278;45.642;13.756;2023-02-11T16:49:22;4.75;;;4.35;;
15608;SDS011;64278;45.642;13.756;2023-02-11T16:51:53;4.90;;;4.55;;
15608;SDS011;64278;45.642;13.756;2023-02-11T16:54:21;5.03;;;4.63;;
15608;SDS011;64278;45.642;13.756;2023-02-11T16:56:47;4.88;;;4.47;;
15608;SDS011;64278;45.642;13.756;2023-02-11T16:59:13;4.88;;;4.47;;
15608;SDS011;64278;45.642;13.756;2023-02-11T17:01:40;5.13;;;4.72;;
15608;SDS011;64278;45.642;13.756;2023-02-11T17:04:09;5.00;;;4.50;;
15608;SDS011;64278;45.642;13.756;2023-02-11T17:06:46;6.13;;;5.00;;
15608;SDS011;64278;45.642;13.756;2023-02-11T17:09:22;4.88;;;4.47;;
15608;SDS011;64278;45.642;13.756;2023-02-11T17:11:49;6.15;;;5.65;;
15608;SDS011;64278;45.642;13.756;2023-02-11T17:14:16;5.28;;;4.75;;
15608;SDS011;64278;45.642;13.756;2023-02-11T17:16:43;4.75;;;4.35;;
15608;SDS011;64278;45.642;13.756;2023-02-11T17:19:13;4.30;;;4.00;;
15608;SDS011;64278;45.642;13.756;2023-02-11T17:21:44;4.90;;;4.50;;
15608;SDS011;64278;45.642;13.756;2023-02-11T17:24:11;5.18;;;4.78;;
15608;SDS011;64278;45.642;13.756;2023-02-11T17:26:39;4.25;;;3.90;;
15608;SDS011;64278;45.642;13.756;2023-02-11T17:29:09;4.90;;;4.50;;
15608;SDS011;64278;45.642;13.756;2023-02-11T17:31:36;5.53;;;5.03;;
15608;SDS011;64278;45.642;13.756;2023-02-11T17:34:03;5.40;;;4.90;;
15608;SDS011;64278;45.642;13.756;2023-02-11T17:36:29;5.00;;;4.60;;
15608;SDS011;64278;45.642;13.756;2023-02-11T17:38:58;5.03;;;4.63;;
15608;SDS011;64278;45.642;13.756;2023-02-11T17:41:25;5.13;;;4.68;;
15608;SDS011;64278;45.642;13.756;2023-02-11T17:43:51;4.95;;;4.47;;
15608;SDS011;64278;45.642;13.756;2023-02-11T17:46:17;4.95;;;4.55;;
15608;SDS011;64278;45.642;13.756;2023-02-11T17:48:42;5.40;;;4.97;;
15608;SDS011;64278;45.642;13.756;2023-02-11T17:51:24;4.85;;;4.35;;
15608;SDS011;64278;45.642;13.756;2023-02-11T17:53:59;5.32;;;4.82;;
15608;SDS011;64278;45.642;13.756;2023-02-11T17:56:36;4.65;;;4.25;;
15608;SDS011;64278;45.642;13.756;2023-02-11T17:59:03;5.22;;;4.82;;
15608;SDS011;64278;45.642;13.756;2023-02-11T18:01:30;5.70;;;5.20;;
15608;SDS011;64278;45.642;13.756;2023-02-11T18:03:57;6.32;;;4.85;;
15608;SDS011;64278;45.642;13.756;2023-02-11T18:06:23;4.97;;;4.60;;
15608;SDS011;64278;45.642;13.756;2023-02-11T18:08:49;5.93;;;5.32;;
15608;SDS011;64278;45.642;13.756;2023-02-11T18:11:14;5.70;;;5.00;;
15608;SDS011;64278;45.642;13.756;2023-02-11T18:13:41;5.70;;;4.97;;
15608;SDS011;64278;45.642;13.756;2023-02-11T18:16:07;5.53;;;5.03;;
15608;SDS011;64278;45.642;13.756;2023-02-11T18:18:34;4.90;;;4.50;;